sensor_id;sensor_type;location;lat;lon;timestamp;P1;durP1;ratioP1;P2;durP2;ratioP2
54123;SDS011;55741;53.252;5.788;2024-01-15T00:00:03;24.75;;;4.35;;
54123;SDS011;55741;53.252;5.788;2024-01-15T00:02:30;25.13;;;3.47;;
54123;SDS011;55741;53.252;5.788;2024-01-15T00:04:56;16.80;;;3.63;;
54123;SDS011;55741;53.252;5.788;2024-01-15T00:07:24;22.95;;;3.95;;
54123;SDS011;55741;53.252;5.788;2024-01-15T00:09:50;19.23;;;2.88;;
54123;SDS011;55741;53.252;5.788;2024-01-15T00:12:15;26.15;;;3.33;;
54123;SDS011;55741;53.252;5.788;2024-01-15T00:14:41;28.08;;;3.05;;
54123;SDS011;55741;53.252;5.788;2024-01-15T00:17:07;20.98;;;3.90;;
54123;SDS011;55741;53.252;5.788;2024-01-15T00:19:33;21.35;;;2.92;;
54123;SDS011;55741;53.252;5.788;2024-01-15T00:21:59;22.10;;;3.63;;
54123;SDS011;55741;53.252;5.788;2024-01-15T00:24:25;22.02;;;4.40;;
54123;SDS011;55741;53.252;5.788;2024-01-15T00:26:51;13.88;;;1.75;;
54123;SDS011;55741;53.252;5.788;2024-01-15T00:29:18;18.33;;;2.25;;
54123;SDS011;55741;53.252;5.788;2024-01-15T00:31:44;12.48;;;2.53;;
54123;SDS011;55741;53.252;5.788;2024-01-15T00:34:30;12.35;;;1.85;;
54123;SDS011;55741;53.252;5.788;2024-01-15T00:36:56;10.55;;;1.88;;
54123;SDS011;55741;53.252;5.788;2024-01-15T00:39:21;8.13;;;2.15;;
54123;SDS011;55741;53.252;5.788;2024-01-15T00:41:47;18.88;;;1.90;;
54123;SDS011;55741;53.252;5.788;2024-01-15T00:44:13;21.30;;;2.58;;
54123;SDS011;55741;53.252;5.788;2024-01-15T00:46:43;19.20;;;3.05;;
54123;SDS011;55741;53.252;5.788;2024-01-15T00:49:11;17.42;;;2.05;;
54123;SDS011;55741;53.252;5.788;2024-01-15T00:51:38;10.88;;;1.95;;
54123;SDS011;55741;53.252;5.788;2024-01-15T00:54:04;21.73;;;3.05;;
54123;SDS011;55741;53.252;5.788;2024-01-15T00:56:31;11.98;;;1.80;;
54123;SDS011;55741;53.252;5.788;2024-01-15T00:58:56;16.05;;;2.28;;
54123;SDS011;55741;53.252;5.788;2024-01-15T01:01:22;20.33;;;2.05;;
54123;SDS011;55741;53.252;5.788;2024-01-15T01:03:48;14.32;;;2.53;;
54123;SDS011;55741;53.252;5.788;2024-01-15T01:06:14;18.45;;;2.20;;
54123;SDS011;55741;53.252;5.788;2024-01-15T01:08:42;13.23;;;2.25;;
54123;SDS011;55741;53.252;5.788;2024-01-15T01:11:12;16.30;;;4.03;;
54123;SDS011;55741;53.252;5.788;2024-01-15T01:13:39;16.15;;;2.45;;
54123;SDS011;55741;53.252;5.788;2024-01-15T01:16:05;17.25;;;3.10;;
54123;SDS011;55741;53.252;5.788;2024-01-15T01:18:33;20.90;;;3.42;;
54123;SDS011;55741;53.252;5.788;2024-01-15T01:20:59;26.48;;;4.30;;
54123;SDS011;55741;53.252;5.788;2024-01-15T01:23:25;21.77;;;4.72;;
54123;SDS011;55741;53.252;5.788;2024-01-15T01:25:50;21.02;;;3.67;;
54123;SDS011;55741;53.252;5.788;2024-01-15T01:28:16;33.55;;;4.63;;
54123;SDS011;55741;53.252;5.788;2024-01-15T01:30:42;21.98;;;2.90;;
54123;SDS011;55741;53.252;5.788;2024-01-15T01:33:28;14.30;;;2.35;;
54123;SDS011;55741;53.252;5.788;2024-01-15T01:35:54;13.48;;;2.63;;
54123;SDS011;55741;53.252;5.788;2024-01-15T01:38:20;16.30;;;3.63;;
54123;SDS011;55741;53.252;5.788;2024-01-15T01:40:46;14.60;;;3.45;;
54123;SDS011;55741;53.252;5.788;2024-01-15T01:43:12;19.73;;;2.83;;
54123;SDS011;55741;53.252;5.788;2024-01-15T01:45:38;15.77;;;2.65;;
54123;SDS011;55741;53.252;5.788;2024-01-15T01:48:04;18.10;;;2.97;;
54123;SDS011;55741;53.252;5.788;2024-01-15T01:50:30;21.52;;;2.72;;
54123;SDS011;55741;53.252;5.788;2024-01-15T01:53:17;17.77;;;3.08;;
54123;SDS011;55741;53.252;5.788;2024-01-15T01:55:43;15.43;;;3.10;;
54123;SDS011;55741;53.252;5.788;2024-01-15T01:58:09;20.40;;;3.60;;
54123;SDS011;55741;53.252;5.788;2024-01-15T02:00:35;25.15;;;3.47;;
54123;SDS011;55741;53.252;5.788;2024-01-15T02:03:02;24.38;;;3.35;;
54123;SDS011;55741;53.252;5.788;2024-01-15T02:05:28;18.55;;;2.92;;
54123;SDS011;55741;53.252;5.788;2024-01-15T02:07:55;16.67;;;2.83;;
54123;SDS011;55741;53.252;5.788;2024-01-15T02:10:22;11.45;;;2.45;;
54123;SDS011;55741;53.252;5.788;2024-01-15T02:12:48;11.98;;;1.80;;
54123;SDS011;55741;53.252;5.788;2024-01-15T02:15:14;24.33;;;2.78;;
54123;SDS011;55741;53.252;5.788;2024-01-15T02:20:50;14.00;;;2.95;;
54123;SDS011;55741;53.252;5.788;2024-01-15T02:23:16;19.02;;;3.50;;
54123;SDS011;55741;53.252;5.788;2024-01-15T02:25:43;18.77;;;2.88;;
54123;SDS011;55741;53.252;5.788;2024-01-15T02:28:11;15.85;;;3.60;;
54123;SDS011;55741;53.252;5.788;2024-01-15T02:30:38;21.13;;;3.35;;
54123;SDS011;55741;53.252;5.788;2024-01-15T02:33:08;27.13;;;4.15;;
54123;SDS011;55741;53.252;5.788;2024-01-15T02:35:35;22.90;;;3.10;;
54123;SDS011;55741;53.252;5.788;2024-01-15T02:38:07;11.60;;;2.58;;
54123;SDS011;55741;53.252;5.788;2024-01-15T02:40:33;12.75;;;2.67;;
54123;SDS011;55741;53.252;5.788;2024-01-15T02:42:59;8.05;;;2.45;;
54123;SDS011;55741;53.252;5.788;2024-01-15T02:45:26;16.52;;;2.08;;
54123;SDS011;55741;53.252;5.788;2024-01-15T02:47:52;13.75;;;2.30;;
54123;SDS011;55741;53.252;5.788;2024-01-15T02:50:18;18.38;;;2.92;;
54123;SDS011;55741;53.252;5.788;2024-01-15T02:52:44;23.20;;;3.08;;
54123;SDS011;55741;53.252;5.788;2024-01-15T02:55:10;27.20;;;3.42;;
54123;SDS011;55741;53.252;5.788;2024-01-15T02:57:36;23.40;;;3.33;;
54123;SDS011;55741;53.252;5.788;2024-01-15T03:00:02;27.20;;;3.65;;
54123;SDS011;55741;53.252;5.788;2024-01-15T03:02:29;29.40;;;3.63;;
54123;SDS011;55741;53.252;5.788;2024-01-15T03:05:16;24.33;;;3.25;;
54123;SDS011;55741;53.252;5.788;2024-01-15T03:07:43;19.67;;;2.83;;
54123;SDS011;55741;53.252;5.788;2024-01-15T03:10:09;12.38;;;2.53;;
54123;SDS011;55741;53.252;5.788;2024-01-15T03:12:36;19.45;;;3.08;;
54123;SDS011;55741;53.252;5.788;2024-01-15T03:15:03;18.92;;;2.92;;
54123;SDS011;55741;53.252;5.788;2024-01-15T03:17:29;23.20;;;3.53;;
54123;SDS011;55741;53.252;5.788;2024-01-15T03:19:55;19.83;;;2.67;;
54123;SDS011;55741;53.252;5.788;2024-01-15T03:22:21;18.50;;;3.63;;
54123;SDS011;55741;53.252;5.788;2024-01-15T03:24:47;23.30;;;3.05;;
54123;SDS011;55741;53.252;5.788;2024-01-15T03:27:13;28.25;;;5.57;;
54123;SDS011;55741;53.252;5.788;2024-01-15T03:29:39;15.02;;;3.33;;
54123;SDS011;55741;53.252;5.788;2024-01-15T03:32:06;12.05;;;2.25;;
54123;SDS011;55741;53.252;5.788;2024-01-15T03:34:32;16.23;;;3.28;;
54123;SDS011;55741;53.252;5.788;2024-01-15T03:36:58;11.50;;;2.40;;
54123;SDS011;55741;53.252;5.788;2024-01-15T03:39:24;15.65;;;2.63;;
54123;SDS011;55741;53.252;5.788;2024-01-15T03:41:50;10.13;;;1.90;;
54123;SDS011;55741;53.252;5.788;2024-01-15T03:44:16;8.80;;;1.80;;
54123;SDS011;55741;53.252;5.788;2024-01-15T03:46:42;10.05;;;1.85;;
54123;SDS011;55741;53.252;5.788;2024-01-15T03:49:08;12.52;;;2.08;;
54123;SDS011;55741;53.252;5.788;2024-01-15T03:51:34;12.20;;;2.30;;
54123;SDS011;55741;53.252;5.788;2024-01-15T03:54:00;10.48;;;1.85;;
54123;SDS011;55741;53.252;5.788;2024-01-15T03:56:45;13.90;;;1.70;;
54123;SDS011;55741;53.252;5.788;2024-01-15T03:59:11;10.52;;;1.90;;
54123;SDS011;55741;53.252;5.788;2024-01-15T04:01:37;10.40;;;1.77;;
54123;SDS011;55741;53.252;5.788;2024-01-15T04:04:03;15.98;;;2.35;;
54123;SDS011;55741;53.252;5.788;2024-01-15T04:06:29;18.05;;;2.20;;
54123;SDS011;55741;53.252;5.788;2024-01-15T04:09:15;12.32;;;2.08;;
54123;SDS011;55741;53.252;5.788;2024-01-15T04:11:41;9.43;;;1.83;;
54123;SDS011;55741;53.252;5.788;2024-01-15T04:14:09;16.90;;;2.40;;
54123;SDS011;55741;53.252;5.788;2024-01-15T04:16:35;16.42;;;2.47;;
54123;SDS011;55741;53.252;5.788;2024-01-15T04:19:02;13.25;;;2.38;;
54123;SDS011;55741;53.252;5.788;2024-01-15T04:21:28;15.95;;;3.53;;
54123;SDS011;55741;53.252;5.788;2024-01-15T04:23:54;14.02;;;2.50;;
54123;SDS011;55741;53.252;5.788;2024-01-15T04:26:20;20.10;;;2.30;;
54123;SDS011;55741;53.252;5.788;2024-01-15T04:28:46;24.95;;;3.25;;
54123;SDS011;55741;53.252;5.788;2024-01-15T04:31:20;18.33;;;3.05;;
54123;SDS011;55741;53.252;5.788;2024-01-15T04:36:13;19.40;;;2.90;;
54123;SDS011;55741;53.252;5.788;2024-01-15T04:38:40;10.35;;;2.25;;
54123;SDS011;55741;53.252;5.788;2024-01-15T04:41:10;22.55;;;2.90;;
54123;SDS011;55741;53.252;5.788;2024-01-15T04:43:39;18.05;;;2.83;;
54123;SDS011;55741;53.252;5.788;2024-01-15T04:46:05;19.55;;;3.55;;
54123;SDS011;55741;53.252;5.788;2024-01-15T04:48:32;19.42;;;3.78;;
54123;SDS011;55741;53.252;5.788;2024-01-15T04:50:58;12.52;;;2.20;;
54123;SDS011;55741;53.252;5.788;2024-01-15T04:53:26;18.58;;;2.92;;
54123;SDS011;55741;53.252;5.788;2024-01-15T04:55:51;23.98;;;3.63;;
54123;SDS011;55741;53.252;5.788;2024-01-15T04:58:17;23.42;;;3.33;;
54123;SDS011;55741;53.252;5.788;2024-01-15T05:00:43;23.25;;;3.20;;
54123;SDS011;55741;53.252;5.788;2024-01-15T05:03:10;16.67;;;3.50;;
54123;SDS011;55741;53.252;5.788;2024-01-15T05:05:36;22.83;;;4.28;;
54123;SDS011;55741;53.252;5.788;2024-01-15T05:08:02;30.33;;;3.88;;
54123;SDS011;55741;53.252;5.788;2024-01-15T05:10:28;25.65;;;4.40;;
54123;SDS011;55741;53.252;5.788;2024-01-15T05:12:54;33.10;;;3.95;;
54123;SDS011;55741;53.252;5.788;2024-01-15T05:15:21;29.63;;;3.67;;
54123;SDS011;55741;53.252;5.788;2024-01-15T05:17:47;33.30;;;4.07;;
54123;SDS011;55741;53.252;5.788;2024-01-15T05:20:13;32.65;;;5.22;;
54123;SDS011;55741;53.252;5.788;2024-01-15T05:22:39;25.75;;;3.70;;
54123;SDS011;55741;53.252;5.788;2024-01-15T05:25:05;20.20;;;3.97;;
54123;SDS011;55741;53.252;5.788;2024-01-15T05:27:31;32.58;;;5.60;;
54123;SDS011;55741;53.252;5.788;2024-01-15T05:29:57;23.17;;;3.35;;
54123;SDS011;55741;53.252;5.788;2024-01-15T05:32:23;25.10;;;3.40;;
54123;SDS011;55741;53.252;5.788;2024-01-15T05:34:49;19.65;;;3.50;;
54123;SDS011;55741;53.252;5.788;2024-01-15T05:37:15;27.40;;;3.55;;
54123;SDS011;55741;53.252;5.788;2024-01-15T05:40:00;22.48;;;3.65;;
54123;SDS011;55741;53.252;5.788;2024-01-15T05:42:26;22.75;;;4.28;;
54123;SDS011;55741;53.252;5.788;2024-01-15T05:44:55;24.20;;;2.90;;
54123;SDS011;55741;53.252;5.788;2024-01-15T05:47:21;25.27;;;4.93;;
54123;SDS011;55741;53.252;5.788;2024-01-15T05:49:46;21.20;;;2.80;;
54123;SDS011;55741;53.252;5.788;2024-01-15T05:52:12;20.35;;;3.13;;
54123;SDS011;55741;53.252;5.788;2024-01-15T05:54:38;22.77;;;3.20;;
54123;SDS011;55741;53.252;5.788;2024-01-15T05:57:04;20.65;;;2.85;;
54123;SDS011;55741;53.252;5.788;2024-01-15T05:59:30;25.45;;;3.47;;
54123;SDS011;55741;53.252;5.788;2024-01-15T06:01:57;16.52;;;2.88;;
54123;SDS011;55741;53.252;5.788;2024-01-15T06:04:23;13.20;;;3.15;;
54123;SDS011;55741;53.252;5.788;2024-01-15T06:06:48;14.77;;;2.58;;
54123;SDS011;55741;53.252;5.788;2024-01-15T06:09:14;23.08;;;2.95;;
54123;SDS011;55741;53.252;5.788;2024-01-15T06:11:40;11.73;;;2.25;;
54123;SDS011;55741;53.252;5.788;2024-01-15T06:14:06;9.88;;;1.77;;
54123;SDS011;55741;53.252;5.788;2024-01-15T06:16:33;11.07;;;2.15;;
54123;SDS011;55741;53.252;5.788;2024-01-15T06:18:59;7.43;;;1.35;;
54123;SDS011;55741;53.252;5.788;2024-01-15T06:21:25;11.00;;;1.50;;
54123;SDS011;55741;53.252;5.788;2024-01-15T06:23:51;18.98;;;2.00;;
54123;SDS011;55741;53.252;5.788;2024-01-15T06:26:17;9.55;;;2.40;;
54123;SDS011;55741;53.252;5.788;2024-01-15T06:28:43;12.43;;;1.95;;
54123;SDS011;55741;53.252;5.788;2024-01-15T06:31:08;9.88;;;1.95;;
54123;SDS011;55741;53.252;5.788;2024-01-15T06:33:34;19.15;;;2.75;;
54123;SDS011;55741;53.252;5.788;2024-01-15T06:36:00;16.17;;;2.20;;
54123;SDS011;55741;53.252;5.788;2024-01-15T06:38:26;14.00;;;2.40;;
54123;SDS011;55741;53.252;5.788;2024-01-15T06:40:52;10.18;;;2.35;;
54123;SDS011;55741;53.252;5.788;2024-01-15T06:43:18;16.10;;;2.40;;
54123;SDS011;55741;53.252;5.788;2024-01-15T06:45:44;16.92;;;2.97;;
54123;SDS011;55741;53.252;5.788;2024-01-15T06:48:09;14.10;;;2.22;;
54123;SDS011;55741;53.252;5.788;2024-01-15T06:50:39;19.27;;;3.70;;
54123;SDS011;55741;53.252;5.788;2024-01-15T06:55:50;13.95;;;2.35;;
54123;SDS011;55741;53.252;5.788;2024-01-15T06:58:16;18.33;;;3.28;;
54123;SDS011;55741;53.252;5.788;2024-01-15T07:00:42;17.35;;;2.97;;
54123;SDS011;55741;53.252;5.788;2024-01-15T07:03:08;16.00;;;2.88;;
54123;SDS011;55741;53.252;5.788;2024-01-15T07:05:34;27.17;;;3.65;;
54123;SDS011;55741;53.252;5.788;2024-01-15T07:08:19;40.10;;;5.88;;
54123;SDS011;55741;53.252;5.788;2024-01-15T07:10:45;14.45;;;2.97;;
54123;SDS011;55741;53.252;5.788;2024-01-15T07:13:11;15.52;;;2.00;;
54123;SDS011;55741;53.252;5.788;2024-01-15T07:15:37;7.60;;;1.60;;
54123;SDS011;55741;53.252;5.788;2024-01-15T07:18:24;9.10;;;1.75;;
54123;SDS011;55741;53.252;5.788;2024-01-15T07:20:51;12.60;;;1.83;;
54123;SDS011;55741;53.252;5.788;2024-01-15T07:23:36;8.43;;;1.75;;
54123;SDS011;55741;53.252;5.788;2024-01-15T07:26:02;10.65;;;1.75;;
54123;SDS011;55741;53.252;5.788;2024-01-15T07:28:30;6.95;;;1.55;;
54123;SDS011;55741;53.252;5.788;2024-01-15T07:30:56;9.25;;;1.80;;
54123;SDS011;55741;53.252;5.788;2024-01-15T07:33:22;9.02;;;1.67;;
54123;SDS011;55741;53.252;5.788;2024-01-15T07:36:08;8.13;;;1.30;;
54123;SDS011;55741;53.252;5.788;2024-01-15T07:38:34;7.75;;;1.52;;
54123;SDS011;55741;53.252;5.788;2024-01-15T07:41:00;11.68;;;1.50;;
54123;SDS011;55741;53.252;5.788;2024-01-15T07:43:26;4.45;;;1.00;;
54123;SDS011;55741;53.252;5.788;2024-01-15T07:45:53;4.32;;;0.98;;
54123;SDS011;55741;53.252;5.788;2024-01-15T07:48:18;4.25;;;1.00;;
54123;SDS011;55741;53.252;5.788;2024-01-15T07:50:45;5.93;;;1.20;;
54123;SDS011;55741;53.252;5.788;2024-01-15T07:53:11;7.35;;;1.35;;
54123;SDS011;55741;53.252;5.788;2024-01-15T07:55:37;11.90;;;1.55;;
54123;SDS011;55741;53.252;5.788;2024-01-15T07:58:03;6.18;;;1.30;;
54123;SDS011;55741;53.252;5.788;2024-01-15T08:00:29;3.72;;;1.20;;
54123;SDS011;55741;53.252;5.788;2024-01-15T08:02:54;12.50;;;1.88;;
54123;SDS011;55741;53.252;5.788;2024-01-15T08:05:20;7.28;;;1.50;;
54123;SDS011;55741;53.252;5.788;2024-01-15T08:07:46;10.52;;;2.00;;
54123;SDS011;55741;53.252;5.788;2024-01-15T08:10:12;9.18;;;1.63;;
54123;SDS011;55741;53.252;5.788;2024-01-15T08:12:39;14.05;;;1.80;;
54123;SDS011;55741;53.252;5.788;2024-01-15T08:15:05;10.05;;;2.40;;
54123;SDS011;55741;53.252;5.788;2024-01-15T08:17:31;14.82;;;2.50;;
54123;SDS011;55741;53.252;5.788;2024-01-15T08:19:59;10.93;;;2.55;;
54123;SDS011;55741;53.252;5.788;2024-01-15T08:22:25;9.75;;;2.10;;
54123;SDS011;55741;53.252;5.788;2024-01-15T08:25:11;17.23;;;3.05;;
54123;SDS011;55741;53.252;5.788;2024-01-15T08:27:38;16.13;;;1.98;;
54123;SDS011;55741;53.252;5.788;2024-01-15T08:30:04;16.75;;;3.05;;
54123;SDS011;55741;53.252;5.788;2024-01-15T08:32:30;21.23;;;2.35;;
54123;SDS011;55741;53.252;5.788;2024-01-15T08:34:56;19.25;;;3.55;;
54123;SDS011;55741;53.252;5.788;2024-01-15T08:37:22;14.32;;;2.03;;
54123;SDS011;55741;53.252;5.788;2024-01-15T08:39:48;13.70;;;2.22;;
54123;SDS011;55741;53.252;5.788;2024-01-15T08:42:13;16.40;;;2.20;;
54123;SDS011;55741;53.252;5.788;2024-01-15T08:44:39;14.75;;;2.58;;
54123;SDS011;55741;53.252;5.788;2024-01-15T08:47:08;13.65;;;3.03;;
54123;SDS011;55741;53.252;5.788;2024-01-15T08:49:34;14.60;;;2.85;;
54123;SDS011;55741;53.252;5.788;2024-01-15T08:52:01;11.77;;;1.90;;
54123;SDS011;55741;53.252;5.788;2024-01-15T08:54:47;18.08;;;2.25;;
54123;SDS011;55741;53.252;5.788;2024-01-15T08:57:13;16.85;;;2.60;;
54123;SDS011;55741;53.252;5.788;2024-01-15T08:59:39;17.00;;;2.42;;
54123;SDS011;55741;53.252;5.788;2024-01-15T09:02:04;13.20;;;2.20;;
54123;SDS011;55741;53.252;5.788;2024-01-15T09:04:30;15.55;;;1.90;;
54123;SDS011;55741;53.252;5.788;2024-01-15T09:06:56;11.45;;;2.25;;
54123;SDS011;55741;53.252;5.788;2024-01-15T09:09:22;16.50;;;3.13;;
54123;SDS011;55741;53.252;5.788;2024-01-15T09:11:48;12.73;;;1.98;;
54123;SDS011;55741;53.252;5.788;2024-01-15T09:14:14;12.75;;;2.38;;
54123;SDS011;55741;53.252;5.788;2024-01-15T09:16:39;11.20;;;2.00;;
54123;SDS011;55741;53.252;5.788;2024-01-15T09:19:05;16.42;;;2.42;;
54123;SDS011;55741;53.252;5.788;2024-01-15T09:21:33;12.10;;;2.17;;
54123;SDS011;55741;53.252;5.788;2024-01-15T09:23:59;12.63;;;2.17;;
54123;SDS011;55741;53.252;5.788;2024-01-15T09:26:24;11.27;;;2.47;;
54123;SDS011;55741;53.252;5.788;2024-01-15T09:28:51;6.18;;;1.63;;
54123;SDS011;55741;53.252;5.788;2024-01-15T09:31:17;9.98;;;2.58;;
54123;SDS011;55741;53.252;5.788;2024-01-15T09:33:45;9.20;;;1.40;;
54123;SDS011;55741;53.252;5.788;2024-01-15T09:36:11;16.58;;;2.05;;
54123;SDS011;55741;53.252;5.788;2024-01-15T09:38:36;7.45;;;1.60;;
54123;SDS011;55741;53.252;5.788;2024-01-15T09:41:03;7.30;;;1.63;;
54123;SDS011;55741;53.252;5.788;2024-01-15T09:43:29;5.47;;;1.42;;
54123;SDS011;55741;53.252;5.788;2024-01-15T09:45:55;7.68;;;1.60;;
54123;SDS011;55741;53.252;5.788;2024-01-15T09:48:21;11.55;;;1.92;;
54123;SDS011;55741;53.252;5.788;2024-01-15T09:50:47;12.25;;;2.10;;
54123;SDS011;55741;53.252;5.788;2024-01-15T09:53:14;8.98;;;1.80;;
54123;SDS011;55741;53.252;5.788;2024-01-15T09:55:41;11.60;;;2.03;;
54123;SDS011;55741;53.252;5.788;2024-01-15T09:58:07;11.07;;;1.80;;
54123;SDS011;55741;53.252;5.788;2024-01-15T10:00:33;7.28;;;1.60;;
54123;SDS011;55741;53.252;5.788;2024-01-15T10:03:04;11.57;;;1.95;;
54123;SDS011;55741;53.252;5.788;2024-01-15T10:05:31;14.70;;;1.65;;
54123;SDS011;55741;53.252;5.788;2024-01-15T10:07:58;8.35;;;2.13;;
54123;SDS011;55741;53.252;5.788;2024-01-15T10:10:26;12.10;;;2.40;;
54123;SDS011;55741;53.252;5.788;2024-01-15T10:12:52;8.18;;;1.90;;
54123;SDS011;55741;53.252;5.788;2024-01-15T10:15:22;15.55;;;2.00;;
54123;SDS011;55741;53.252;5.788;2024-01-15T10:17:49;14.00;;;2.30;;
54123;SDS011;55741;53.252;5.788;2024-01-15T10:20:15;15.75;;;2.63;;
54123;SDS011;55741;53.252;5.788;2024-01-15T10:22:43;10.95;;;1.77;;
54123;SDS011;55741;53.252;5.788;2024-01-15T10:25:13;8.98;;;1.52;;
54123;SDS011;55741;53.252;5.788;2024-01-15T10:27:40;15.32;;;4.15;;
54123;SDS011;55741;53.252;5.788;2024-01-15T10:30:07;9.52;;;1.58;;
54123;SDS011;55741;53.252;5.788;2024-01-15T10:32:33;12.30;;;1.88;;
54123;SDS011;55741;53.252;5.788;2024-01-15T10:34:59;12.07;;;2.22;;
54123;SDS011;55741;53.252;5.788;2024-01-15T10:37:25;15.25;;;1.90;;
54123;SDS011;55741;53.252;5.788;2024-01-15T10:39:52;10.10;;;2.17;;
54123;SDS011;55741;53.252;5.788;2024-01-15T10:42:18;13.30;;;2.33;;
54123;SDS011;55741;53.252;5.788;2024-01-15T10:44:44;18.70;;;3.55;;
54123;SDS011;55741;53.252;5.788;2024-01-15T10:47:13;18.05;;;2.15;;
54123;SDS011;55741;53.252;5.788;2024-01-15T10:49:39;10.13;;;2.10;;
54123;SDS011;55741;53.252;5.788;2024-01-15T10:52:06;14.98;;;2.30;;
54123;SDS011;55741;53.252;5.788;2024-01-15T10:54:32;8.10;;;1.38;;
54123;SDS011;55741;53.252;5.788;2024-01-15T10:56:59;11.43;;;2.15;;
54123;SDS011;55741;53.252;5.788;2024-01-15T10:59:25;13.20;;;1.85;;
54123;SDS011;55741;53.252;5.788;2024-01-15T11:02:12;13.63;;;3.15;;
54123;SDS011;55741;53.252;5.788;2024-01-15T11:04:39;14.40;;;2.58;;
54123;SDS011;55741;53.252;5.788;2024-01-15T11:07:05;11.52;;;1.65;;
54123;SDS011;55741;53.252;5.788;2024-01-15T11:09:32;6.80;;;1.48;;
54123;SDS011;55741;53.252;5.788;2024-01-15T11:12:16;10.63;;;1.83;;
54123;SDS011;55741;53.252;5.788;2024-01-15T11:14:46;11.23;;;2.10;;
54123;SDS011;55741;53.252;5.788;2024-01-15T11:17:13;12.70;;;1.80;;
54123;SDS011;55741;53.252;5.788;2024-01-15T11:19:44;16.92;;;1.88;;
54123;SDS011;55741;53.252;5.788;2024-01-15T11:24:57;15.73;;;2.28;;
54123;SDS011;55741;53.252;5.788;2024-01-15T11:27:43;9.13;;;1.52;;
54123;SDS011;55741;53.252;5.788;2024-01-15T11:30:33;8.48;;;1.67;;
54123;SDS011;55741;53.252;5.788;2024-01-15T11:33:01;10.40;;;1.70;;
54123;SDS011;55741;53.252;5.788;2024-01-15T11:35:47;15.35;;;2.50;;
54123;SDS011;55741;53.252;5.788;2024-01-15T11:38:26;11.07;;;2.05;;
54123;SDS011;55741;53.252;5.788;2024-01-15T11:40:53;11.95;;;2.70;;
54123;SDS011;55741;53.252;5.788;2024-01-15T11:43:19;10.40;;;2.45;;
54123;SDS011;55741;53.252;5.788;2024-01-15T11:45:48;10.43;;;1.55;;
54123;SDS011;55741;53.252;5.788;2024-01-15T11:48:22;13.68;;;2.30;;
54123;SDS011;55741;53.252;5.788;2024-01-15T11:51:00;11.07;;;2.00;;
54123;SDS011;55741;53.252;5.788;2024-01-15T11:53:40;14.70;;;2.15;;
54123;SDS011;55741;53.252;5.788;2024-01-15T11:56:16;11.23;;;2.15;;
54123;SDS011;55741;53.252;5.788;2024-01-15T11:58:43;16.23;;;2.70;;
54123;SDS011;55741;53.252;5.788;2024-01-15T12:01:10;11.95;;;1.95;;
54123;SDS011;55741;53.252;5.788;2024-01-15T12:03:36;11.07;;;2.40;;
54123;SDS011;55741;53.252;5.788;2024-01-15T12:06:05;10.90;;;1.67;;
54123;SDS011;55741;53.252;5.788;2024-01-15T12:08:32;11.38;;;1.60;;
54123;SDS011;55741;53.252;5.788;2024-01-15T12:10:57;11.73;;;1.90;;
54123;SDS011;55741;53.252;5.788;2024-01-15T12:13:23;8.52;;;1.40;;
54123;SDS011;55741;53.252;5.788;2024-01-15T12:15:49;11.90;;;1.83;;
54123;SDS011;55741;53.252;5.788;2024-01-15T12:18:18;8.60;;;1.55;;
54123;SDS011;55741;53.252;5.788;2024-01-15T12:20:45;14.82;;;3.05;;
54123;SDS011;55741;53.252;5.788;2024-01-15T12:23:14;14.77;;;1.88;;
54123;SDS011;55741;53.252;5.788;2024-01-15T12:25:42;12.30;;;2.10;;
54123;SDS011;55741;53.252;5.788;2024-01-15T12:28:08;15.25;;;2.53;;
54123;SDS011;55741;53.252;5.788;2024-01-15T12:30:34;18.73;;;3.10;;
54123;SDS011;55741;53.252;5.788;2024-01-15T12:33:02;12.90;;;2.72;;
54123;SDS011;55741;53.252;5.788;2024-01-15T12:35:29;12.75;;;4.05;;
54123;SDS011;55741;53.252;5.788;2024-01-15T12:37:55;16.15;;;2.60;;
54123;SDS011;55741;53.252;5.788;2024-01-15T12:40:21;23.38;;;4.18;;
54123;SDS011;55741;53.252;5.788;2024-01-15T12:43:08;28.17;;;3.60;;
54123;SDS011;55741;53.252;5.788;2024-01-15T12:45:34;19.65;;;2.95;;
54123;SDS011;55741;53.252;5.788;2024-01-15T12:48:00;19.45;;;3.83;;
54123;SDS011;55741;53.252;5.788;2024-01-15T12:50:28;17.42;;;2.80;;
54123;SDS011;55741;53.252;5.788;2024-01-15T12:52:54;13.90;;;2.85;;
54123;SDS011;55741;53.252;5.788;2024-01-15T12:55:20;24.33;;;4.95;;
54123;SDS011;55741;53.252;5.788;2024-01-15T12:57:46;31.20;;;3.42;;
54123;SDS011;55741;53.252;5.788;2024-01-15T13:00:12;22.20;;;3.55;;
54123;SDS011;55741;53.252;5.788;2024-01-15T13:02:41;17.80;;;3.53;;
54123;SDS011;55741;53.252;5.788;2024-01-15T13:05:08;17.30;;;3.10;;
54123;SDS011;55741;53.252;5.788;2024-01-15T13:07:36;20.50;;;3.35;;
54123;SDS011;55741;53.252;5.788;2024-01-15T13:10:02;30.35;;;4.40;;
54123;SDS011;55741;53.252;5.788;2024-01-15T13:12:29;21.60;;;2.95;;
54123;SDS011;55741;53.252;5.788;2024-01-15T13:14:55;19.40;;;3.38;;
54123;SDS011;55741;53.252;5.788;2024-01-15T13:17:21;27.17;;;3.42;;
54123;SDS011;55741;53.252;5.788;2024-01-15T13:19:47;16.02;;;2.85;;
54123;SDS011;55741;53.252;5.788;2024-01-15T13:22:13;20.98;;;3.00;;
54123;SDS011;55741;53.252;5.788;2024-01-15T13:24:39;18.08;;;3.13;;
54123;SDS011;55741;53.252;5.788;2024-01-15T13:27:07;16.10;;;3.17;;
54123;SDS011;55741;53.252;5.788;2024-01-15T13:29:33;12.43;;;2.58;;
54123;SDS011;55741;53.252;5.788;2024-01-15T13:32:22;17.13;;;2.80;;
54123;SDS011;55741;53.252;5.788;2024-01-15T13:34:54;14.60;;;2.13;;
54123;SDS011;55741;53.252;5.788;2024-01-15T13:37:23;7.20;;;1.92;;
54123;SDS011;55741;53.252;5.788;2024-01-15T13:39:52;10.23;;;1.70;;
54123;SDS011;55741;53.252;5.788;2024-01-15T13:42:18;10.30;;;1.92;;
54123;SDS011;55741;53.252;5.788;2024-01-15T13:44:47;8.27;;;2.05;;
54123;SDS011;55741;53.252;5.788;2024-01-15T13:47:13;11.65;;;1.98;;
54123;SDS011;55741;53.252;5.788;2024-01-15T13:49:39;11.75;;;2.15;;
54123;SDS011;55741;53.252;5.788;2024-01-15T13:52:04;13.18;;;3.05;;
54123;SDS011;55741;53.252;5.788;2024-01-15T13:54:31;14.93;;;2.72;;
54123;SDS011;55741;53.252;5.788;2024-01-15T13:56:56;18.00;;;3.97;;
54123;SDS011;55741;53.252;5.788;2024-01-15T13:59:24;13.85;;;2.58;;
54123;SDS011;55741;53.252;5.788;2024-01-15T14:01:50;15.25;;;2.45;;
54123;SDS011;55741;53.252;5.788;2024-01-15T14:04:36;18.40;;;3.20;;
54123;SDS011;55741;53.252;5.788;2024-01-15T14:07:06;25.45;;;3.05;;
54123;SDS011;55741;53.252;5.788;2024-01-15T14:09:52;19.02;;;2.45;;
54123;SDS011;55741;53.252;5.788;2024-01-15T14:12:38;18.13;;;2.45;;
54123;SDS011;55741;53.252;5.788;2024-01-15T14:15:05;12.70;;;2.17;;
54123;SDS011;55741;53.252;5.788;2024-01-15T14:17:31;12.70;;;2.47;;
54123;SDS011;55741;53.252;5.788;2024-01-15T14:19:57;12.77;;;1.60;;
54123;SDS011;55741;53.252;5.788;2024-01-15T14:22:23;3.08;;;1.05;;
54123;SDS011;55741;53.252;5.788;2024-01-15T14:24:50;3.08;;;0.85;;
54123;SDS011;55741;53.252;5.788;2024-01-15T14:27:17;6.50;;;1.10;;
54123;SDS011;55741;53.252;5.788;2024-01-15T14:29:43;5.18;;;1.00;;
54123;SDS011;55741;53.252;5.788;2024-01-15T14:32:09;3.20;;;1.05;;
54123;SDS011;55741;53.252;5.788;2024-01-15T14:34:35;8.57;;;1.35;;
54123;SDS011;55741;53.252;5.788;2024-01-15T14:37:02;9.52;;;2.47;;
54123;SDS011;55741;53.252;5.788;2024-01-15T14:39:28;9.95;;;1.60;;
54123;SDS011;55741;53.252;5.788;2024-01-15T14:41:54;12.18;;;1.77;;
54123;SDS011;55741;53.252;5.788;2024-01-15T14:44:20;11.70;;;2.15;;
54123;SDS011;55741;53.252;5.788;2024-01-15T14:46:46;11.43;;;2.33;;
54123;SDS011;55741;53.252;5.788;2024-01-15T14:49:13;7.13;;;1.60;;